createdAt,value
2023-05-15T00:01:42.761Z,10.54
2023-05-15T00:05:27.032Z,10.51
2023-05-15T00:09:09.809Z,10.49
2023-05-15T00:12:52.449Z,10.49
2023-05-15T00:16:35.274Z,10.53
2023-05-15T00:20:18.021Z,10.53
2023-05-15T00:24:02.261Z,10.53
2023-05-15T00:27:45.314Z,10.53
2023-05-15T00:31:28.003Z,10.52
2023-05-15T00:35:10.657Z,10.54
2023-05-15T00:38:53.934Z,10.56
2023-05-15T00:42:38.072Z,10.60
2023-05-15T00:46:21.263Z,10.57
2023-05-15T00:50:04.166Z,10.55
2023-05-15T00:53:46.973Z,10.51
2023-05-15T00:57:30.304Z,10.49
2023-05-15T01:01:14.522Z,10.49
2023-05-15T01:04:57.192Z,10.53
2023-05-15T01:08:43.523Z,10.56
2023-05-15T01:12:27.022Z,10.59
2023-05-15T01:16:10.532Z,10.60
2023-05-15T01:19:54.827Z,10.57
2023-05-15T01:23:46.629Z,10.55
2023-05-15T01:27:32.086Z,10.57
2023-05-15T01:31:16.895Z,10.51
2023-05-15T01:35:04.729Z,10.51
2023-05-15T01:38:50.524Z,10.52
2023-05-15T01:42:35.819Z,10.53
2023-05-15T01:46:21.079Z,10.51
2023-05-15T01:50:04.339Z,10.47
2023-05-15T01:53:47.672Z,10.46
2023-05-15T01:57:31.026Z,10.46
2023-05-15T02:01:15.283Z,10.42
2023-05-15T02:04:58.405Z,10.39
2023-05-15T02:08:42.129Z,10.39
2023-05-15T02:12:25.476Z,10.38
2023-05-15T02:16:08.431Z,10.33
2023-05-15T02:19:52.551Z,10.30
2023-05-15T02:23:35.259Z,10.25
2023-05-15T02:27:21.464Z,10.26
2023-05-15T02:31:07.687Z,10.23
2023-05-15T02:34:57.165Z,10.21
2023-05-15T02:38:43.664Z,10.20
2023-05-15T02:42:27.046Z,10.17
2023-05-15T02:46:09.795Z,10.15
2023-05-15T02:49:54.227Z,10.12
2023-05-15T02:53:40.819Z,10.10
2023-05-15T02:57:23.447Z,10.12
2023-05-15T03:01:06.929Z,10.10
2023-05-15T03:04:49.671Z,10.12
2023-05-15T03:08:36.750Z,10.11
2023-05-15T03:12:19.385Z,10.10
2023-05-15T03:16:02.159Z,10.12
2023-05-15T03:19:47.380Z,10.12
2023-05-15T03:23:31.225Z,10.13
2023-05-15T03:27:15.256Z,10.17
2023-05-15T03:30:58.000Z,10.15
2023-05-15T03:34:41.253Z,10.12
2023-05-15T03:38:24.052Z,10.12
2023-05-15T03:42:07.281Z,10.10
2023-05-15T03:45:52.039Z,10.13
2023-05-15T03:49:35.117Z,10.18
2023-05-15T03:53:17.812Z,10.10
2023-05-15T03:57:00.611Z,10.04
2023-05-15T04:00:44.064Z,10.03
2023-05-15T04:04:28.131Z,10.03
2023-05-15T04:08:12.343Z,10.01
2023-05-15T04:11:55.074Z,10.02
2023-05-15T04:15:38.160Z,10.03
2023-05-15T04:19:20.917Z,10.00
2023-05-15T04:23:05.768Z,9.96
2023-05-15T04:26:48.509Z,9.94
2023-05-15T04:30:31.600Z,9.97
2023-05-15T04:34:14.423Z,10.00
2023-05-15T04:37:57.386Z,10.05
2023-05-15T04:41:41.395Z,10.07
2023-05-15T04:45:24.811Z,10.08
2023-05-15T04:49:07.726Z,10.10
2023-05-15T04:52:50.601Z,10.09
2023-05-15T04:56:33.384Z,10.09
2023-05-15T05:00:18.054Z,10.09
2023-05-15T05:04:00.756Z,10.14
2023-05-15T05:07:45.776Z,10.18
2023-05-15T05:11:28.471Z,10.24
2023-05-15T05:15:11.744Z,10.32
2023-05-15T05:18:55.986Z,10.37
2023-05-15T05:22:40.092Z,10.44
2023-05-15T05:26:22.969Z,10.49
2023-05-15T05:30:06.613Z,10.57
2023-05-15T05:33:49.937Z,10.64
2023-05-15T05:37:33.978Z,10.61
2023-05-15T05:41:16.587Z,10.57
2023-05-15T05:45:00.530Z,10.50
2023-05-15T05:48:44.239Z,10.45
2023-05-15T05:52:26.935Z,10.49
2023-05-15T05:56:11.005Z,10.46
2023-05-15T05:59:53.748Z,10.48
2023-05-15T06:03:36.892Z,10.50
2023-05-15T06:07:19.838Z,10.51
2023-05-15T06:11:03.239Z,10.57
2023-05-15T06:14:47.370Z,10.63
2023-05-15T06:18:30.130Z,10.65
2023-05-15T06:22:12.797Z,10.67
2023-05-15T06:25:55.614Z,10.76
2023-05-15T06:29:38.295Z,10.83
2023-05-15T06:33:22.748Z,10.87
2023-05-15T06:37:05.875Z,10.85
2023-05-15T06:40:48.745Z,10.90
2023-05-15T06:44:32.628Z,10.93
2023-05-15T06:48:15.569Z,10.91
2023-05-15T06:51:59.768Z,11.20
2023-05-15T06:55:43.175Z,11.26
2023-05-15T06:59:26.118Z,11.20
2023-05-15T07:03:08.889Z,11.16
2023-05-15T07:06:51.540Z,11.19
2023-05-15T07:10:35.512Z,11.35
2023-05-15T07:14:18.154Z,11.44
2023-05-15T07:18:00.974Z,11.52
2023-05-15T07:21:43.800Z,11.62
2023-05-15T07:25:26.749Z,11.72
2023-05-15T07:29:12.216Z,11.86
2023-05-15T07:32:55.535Z,11.96
2023-05-15T07:36:38.255Z,12.01
2023-05-15T07:40:20.941Z,11.97
2023-05-15T07:44:03.632Z,12.01
2023-05-15T07:47:48.162Z,12.12
2023-05-15T07:51:30.932Z,12.17
2023-05-15T07:55:13.727Z,12.27
2023-05-15T07:58:56.460Z,12.36
2023-05-15T08:02:39.269Z,12.45
2023-05-15T08:06:23.453Z,12.48
2023-05-15T08:10:07.061Z,12.57
2023-05-15T08:13:49.773Z,12.71
2023-05-15T08:17:32.510Z,12.96
2023-05-15T08:21:15.387Z,13.18
2023-05-15T08:25:00.894Z,13.37
2023-05-15T08:28:43.820Z,13.46
2023-05-15T08:32:27.408Z,13.54
2023-05-15T08:36:11.207Z,13.68
2023-05-15T08:39:54.029Z,13.57
2023-05-15T08:43:39.891Z,13.48
2023-05-15T08:47:23.428Z,13.51
2023-05-15T08:51:13.365Z,13.53
2023-05-15T08:54:56.602Z,13.45
2023-05-15T08:58:41.466Z,13.25
2023-05-15T09:02:26.681Z,13.25
2023-05-15T09:06:11.166Z,13.21
2023-05-15T09:09:54.605Z,13.22
2023-05-15T09:13:37.319Z,13.13
2023-05-15T09:17:21.562Z,13.22
2023-05-15T09:21:34.976Z,13.25
2023-05-15T09:25:33.319Z,13.38
2023-05-15T09:29:19.373Z,13.53
2023-05-15T09:33:04.733Z,13.72
2023-05-15T09:36:47.448Z,13.78
2023-05-15T09:40:30.702Z,13.83
2023-05-15T09:44:21.723Z,13.91
2023-05-15T09:48:08.164Z,14.14
2023-05-15T09:51:51.341Z,14.23
2023-05-15T09:55:36.222Z,14.38
2023-05-15T09:59:21.658Z,14.57
2023-05-15T10:03:05.489Z,14.73
2023-05-15T10:06:49.848Z,14.81
2023-05-15T10:10:32.957Z,15.03
2023-05-15T10:14:16.594Z,15.12
2023-05-15T10:18:00.406Z,15.28
2023-05-15T10:21:43.299Z,15.42
2023-05-15T10:25:34.931Z,15.36
2023-05-15T10:29:21.227Z,15.29
2023-05-15T10:33:05.466Z,15.05
2023-05-15T10:36:50.872Z,14.94
2023-05-15T10:40:38.818Z,14.87
2023-05-15T10:44:21.855Z,14.93
2023-05-15T10:48:07.922Z,14.95
2023-05-15T10:51:50.610Z,14.89
2023-05-15T10:55:35.213Z,14.82
2023-05-15T10:59:17.981Z,14.79
2023-05-15T11:03:01.989Z,14.82
2023-05-15T11:06:46.238Z,14.90
2023-05-15T11:10:40.689Z,14.99
2023-05-15T11:14:24.248Z,15.14
2023-05-15T11:18:08.187Z,15.24
2023-05-15T11:21:58.004Z,15.33
2023-05-15T11:25:44.689Z,15.35
2023-05-15T11:29:28.400Z,15.27
2023-05-15T11:33:12.867Z,15.10
2023-05-15T11:36:55.897Z,14.96
2023-05-15T11:40:47.859Z,14.86
2023-05-15T11:44:32.104Z,14.86
2023-05-15T11:48:16.833Z,14.91
2023-05-15T11:51:59.599Z,16.77
2023-05-15T11:55:44.604Z,16.17
2023-05-15T11:59:29.088Z,15.65
2023-05-15T12:03:20.411Z,15.25
2023-05-15T12:07:08.955Z,14.86
2023-05-15T12:10:56.344Z,14.41
2023-05-15T12:14:41.302Z,14.27
2023-05-15T12:18:24.436Z,14.32
2023-05-15T12:22:08.415Z,14.08
2023-05-15T12:25:55.121Z,13.98
2023-05-15T12:29:38.116Z,14.03
2023-05-15T12:33:22.901Z,14.00
2023-05-15T12:37:06.531Z,14.00
2023-05-15T12:40:55.281Z,13.88
2023-05-15T12:44:38.072Z,13.68
2023-05-15T12:48:22.554Z,13.48
2023-05-15T12:52:09.789Z,13.38
2023-05-15T12:55:54.863Z,13.32
2023-05-15T12:59:37.612Z,13.28
2023-05-15T13:03:22.866Z,13.36
2023-05-15T13:07:06.018Z,13.45
2023-05-15T13:10:49.012Z,13.66
2023-05-15T13:14:35.682Z,15.80
2023-05-15T13:18:19.140Z,15.87
2023-05-15T13:22:03.227Z,15.82
2023-05-15T13:25:46.270Z,15.68
2023-05-15T13:29:29.042Z,15.65
2023-05-15T13:33:13.282Z,15.47
2023-05-15T13:36:56.120Z,15.29
2023-05-15T13:40:43.025Z,15.17
2023-05-15T13:44:25.696Z,15.00
2023-05-15T13:48:08.383Z,14.82
2023-05-15T13:51:51.056Z,14.51
2023-05-15T13:55:33.880Z,14.32
2023-05-15T13:59:18.137Z,14.10
2023-05-15T14:03:00.924Z,13.95
2023-05-15T14:06:43.563Z,13.90
2023-05-15T14:10:26.493Z,13.93
2023-05-15T14:14:09.360Z,14.25
2023-05-15T14:17:53.638Z,14.72
2023-05-15T14:21:40.364Z,15.07
2023-05-15T14:25:24.425Z,15.03
2023-05-15T14:29:07.193Z,14.84
2023-05-15T14:32:49.887Z,14.75
2023-05-15T14:36:34.061Z,14.63
2023-05-15T14:40:16.990Z,14.56
2023-05-15T14:43:59.802Z,14.28
2023-05-15T14:47:42.631Z,13.95
2023-05-15T14:51:25.327Z,13.60
2023-05-15T14:55:10.716Z,13.47
2023-05-15T14:58:53.798Z,13.24
2023-05-15T15:02:36.726Z,13.11
2023-05-15T15:06:19.799Z,12.98
2023-05-15T15:10:02.516Z,12.91
2023-05-15T15:13:46.738Z,12.86
2023-05-15T15:17:29.396Z,12.76
2023-05-15T15:21:12.773Z,12.60
2023-05-15T15:24:55.726Z,12.50
2023-05-15T15:28:38.470Z,12.45
2023-05-15T15:32:22.585Z,12.43
2023-05-15T15:36:05.984Z,12.54
2023-05-15T15:39:48.733Z,12.65
2023-05-15T15:43:31.494Z,13.05
2023-05-15T15:47:14.215Z,13.43
2023-05-15T15:50:58.334Z,13.55
2023-05-15T15:54:46.961Z,13.49
2023-05-15T15:58:30.481Z,13.40
2023-05-15T16:02:13.909Z,13.29
2023-05-15T16:05:59.860Z,13.14
2023-05-15T16:09:43.269Z,13.10
2023-05-15T16:13:26.004Z,13.07
2023-05-15T16:17:08.703Z,13.07
2023-05-15T16:20:51.373Z,13.12
2023-05-15T16:24:38.160Z,13.15
2023-05-15T16:28:21.258Z,13.18
2023-05-15T16:32:03.955Z,13.14
2023-05-15T16:35:47.302Z,13.09
2023-05-15T16:39:32.282Z,13.10
2023-05-15T16:43:16.915Z,13.17
2023-05-15T16:47:00.360Z,13.20
2023-05-15T16:50:43.302Z,13.28
2023-05-15T16:54:26.145Z,13.35
2023-05-15T16:58:08.802Z,13.37
2023-05-15T17:01:52.951Z,13.39
2023-05-15T17:05:35.637Z,13.39
2023-05-15T17:09:18.327Z,13.40
2023-05-15T17:13:02.086Z,13.45
2023-05-15T17:16:45.484Z,13.59
2023-05-15T17:20:29.656Z,13.65
2023-05-15T17:24:12.353Z,13.63
2023-05-15T17:27:55.068Z,13.52
2023-05-15T17:31:38.061Z,13.43
2023-05-15T17:35:21.302Z,13.45
2023-05-15T17:39:05.423Z,13.55
2023-05-15T17:42:48.206Z,13.65
2023-05-15T17:46:31.037Z,13.71
2023-05-15T17:50:13.757Z,13.73
2023-05-15T17:53:56.415Z,13.75
2023-05-15T17:57:40.456Z,13.72
2023-05-15T18:01:23.109Z,13.69
2023-05-15T18:05:06.405Z,13.62
2023-05-15T18:08:49.960Z,13.48
2023-05-15T18:12:32.616Z,13.28
2023-05-15T18:16:17.897Z,13.17
2023-05-15T18:20:00.641Z,13.11
2023-05-15T18:23:43.253Z,13.01
2023-05-15T18:27:26.148Z,12.89
2023-05-15T18:31:08.880Z,12.78
2023-05-15T18:34:53.025Z,12.67
2023-05-15T18:38:35.739Z,12.58
2023-05-15T18:42:18.461Z,12.54
2023-05-15T18:46:02.345Z,12.47
2023-05-15T18:49:45.049Z,12.42
2023-05-15T18:53:29.054Z,12.37
2023-05-15T18:57:14.206Z,12.28
2023-05-15T19:00:57.041Z,12.16
2023-05-15T19:04:39.773Z,12.09
2023-05-15T19:08:22.422Z,12.02
2023-05-15T19:12:07.199Z,11.95
2023-05-15T19:15:52.794Z,11.90
2023-05-15T19:19:35.415Z,11.80
2023-05-15T19:23:18.636Z,11.75
2023-05-15T19:27:01.542Z,11.63
2023-05-15T19:30:45.608Z,11.55
2023-05-15T19:34:28.294Z,11.47
2023-05-15T19:38:11.420Z,11.37
2023-05-15T19:41:55.724Z,11.29
2023-05-15T19:45:41.048Z,11.23
2023-05-15T19:49:28.003Z,11.18
2023-05-15T19:53:12.098Z,11.17
2023-05-15T19:56:56.293Z,11.12
2023-05-15T20:00:39.011Z,11.09
2023-05-15T20:04:21.682Z,11.05
2023-05-15T20:08:05.985Z,10.99
2023-05-15T20:11:48.683Z,10.98
2023-05-15T20:15:31.690Z,10.97
2023-05-15T20:19:14.616Z,10.88
2023-05-15T20:22:57.417Z,10.79
2023-05-15T20:26:41.783Z,10.72
2023-05-15T20:30:24.898Z,10.64
2023-05-15T20:34:08.214Z,10.57
2023-05-15T20:37:51.575Z,10.49
2023-05-15T20:41:34.397Z,10.47
2023-05-15T20:45:18.480Z,10.44
2023-05-15T20:49:01.147Z,10.45
2023-05-15T20:52:43.838Z,10.39
2023-05-15T20:56:26.733Z,10.56
2023-05-15T21:00:11.741Z,10.72
2023-05-15T21:03:55.947Z,10.60
2023-05-15T21:07:38.783Z,10.51
2023-05-15T21:11:21.710Z,10.44
2023-05-15T21:15:06.168Z,10.39
2023-05-15T21:18:49.061Z,10.37
2023-05-15T21:22:33.260Z,10.35
2023-05-15T21:26:16.688Z,10.35
2023-05-15T21:29:59.529Z,10.34
2023-05-15T21:33:42.285Z,10.35
2023-05-15T21:37:27.275Z,10.34
2023-05-15T21:41:11.549Z,10.38
2023-05-15T21:44:54.292Z,10.39
2023-05-15T21:48:36.949Z,10.39
2023-05-15T21:52:19.989Z,10.39
2023-05-15T21:56:02.988Z,10.37
2023-05-15T21:59:47.036Z,10.38
2023-05-15T22:03:29.807Z,10.41
2023-05-15T22:07:14.835Z,10.42
2023-05-15T22:10:57.624Z,10.41
2023-05-15T22:14:54.498Z,10.41
2023-05-15T22:18:45.304Z,10.43
2023-05-15T22:22:28.137Z,10.45
2023-05-15T22:26:10.983Z,10.47
2023-05-15T22:29:54.754Z,10.45
2023-05-15T22:33:37.635Z,10.47
2023-05-15T22:37:21.860Z,10.47
2023-05-15T22:41:04.883Z,10.50
2023-05-15T22:44:47.639Z,10.54
2023-05-15T22:48:30.457Z,10.54
2023-05-15T22:52:14.069Z,10.53
2023-05-15T22:55:58.317Z,10.52
2023-05-15T22:59:40.970Z,10.51
2023-05-15T23:03:23.879Z,10.55
2023-05-15T23:07:06.811Z,10.54
2023-05-15T23:10:49.512Z,10.50
2023-05-15T23:14:34.426Z,10.45
2023-05-15T23:18:17.365Z,10.45
2023-05-15T23:22:00.514Z,10.44
2023-05-15T23:25:43.191Z,10.45
2023-05-15T23:29:26.028Z,10.37
2023-05-15T23:33:10.219Z,10.36
2023-05-15T23:36:53.080Z,10.36
2023-05-15T23:40:35.964Z,10.35
2023-05-15T23:44:18.898Z,10.32
2023-05-15T23:48:01.657Z,10.30
2023-05-15T23:51:46.249Z,10.33
2023-05-15T23:55:28.950Z,10.33
2023-05-15T23:59:11.609Z,10.35
